Time;durP1;ratioP1;P1;durP2;ratioP2;P2;SDS_P1;SDS_P2;PMS_P1;PMS_P2;Temp;Humidity;BMP_temperature;BMP_pressure;BME280_temperature;BME280_humidity;BME280_pressure;Samples;Min_cycle;Max_cycle;Signal;HPM_P1;HPM_P2
2023/11/05 00:00:31;;;;;;;0.85;0.70;;;9.00;99.90;;;;;;5006221;28;20049;-32
2023/11/05 00:02:57;;;;;;;0.55;0.55;;;9.00;99.90;;;;;;5004772;28;20061;-42
2023/11/05 00:05:22;;;;;;;0.55;0.55;;;9.00;99.90;;;;;;5006001;28;20046;-39
2023/11/05 00:07:48;;;;;;;0.70;0.70;;;9.00;99.90;;;;;;4986794;28;20108;-41
2023/11/05 00:10:14;;;;;;;1.27;0.65;;;9.00;99.90;;;;;;5006374;28;20502;-40
2023/11/05 00:12:39;;;;;;;0.40;0.40;;;8.90;99.90;;;;;;5005115;28;20038;-39
2023/11/05 00:15:06;;;;;;;0.50;0.50;;;8.90;99.90;;;;;;5006246;28;20136;-39
2023/11/05 00:17:33;;;;;;;0.60;0.60;;;8.90;99.90;;;;;;5004664;28;20402;-38
2023/11/05 00:19:59;;;;;;;0.50;0.50;;;8.80;99.90;;;;;;4996142;28;20030;-40
2023/11/05 00:22:24;;;;;;;0.52;0.45;;;8.80;99.90;;;;;;4975230;28;21844;-41
2023/11/05 00:24:50;;;;;;;0.65;0.60;;;8.80;99.90;;;;;;5000383;28;20033;-41
2023/11/05 00:27:15;;;;;;;0.70;0.70;;;8.70;99.90;;;;;;5000357;28;20487;-39
2023/11/05 00:29:41;;;;;;;0.40;0.40;;;8.80;99.90;;;;;;4999932;28;20026;-35
2023/11/05 00:32:07;;;;;;;0.40;0.40;;;8.70;99.90;;;;;;5000144;28;20099;-34
2023/11/05 00:34:32;;;;;;;0.30;0.30;;;8.70;99.90;;;;;;4999984;28;20061;-39
2023/11/05 00:36:58;;;;;;;0.93;0.50;;;8.70;99.90;;;;;;4999523;28;20030;-38
2023/11/05 00:39:23;;;;;;;0.90;0.47;;;8.60;99.90;;;;;;5001178;28;20035;-40
2023/11/05 00:41:49;;;;;;;0.50;0.50;;;8.60;99.90;;;;;;5001667;28;20026;-35
2023/11/05 00:44:14;;;;;;;0.50;0.50;;;8.50;99.90;;;;;;5002107;28;20120;-30
2023/11/05 00:46:40;;;;;;;0.80;0.63;;;8.40;99.90;;;;;;5002271;28;20026;-37
2023/11/05 00:49:07;;;;;;;0.50;0.50;;;8.40;99.90;;;;;;5001457;28;20034;-33
2023/11/05 00:51:33;;;;;;;0.47;0.47;;;8.30;99.90;;;;;;5002235;28;20155;-30
2023/11/05 00:53:59;;;;;;;0.98;0.55;;;8.30;99.90;;;;;;5000686;28;20056;-30
2023/11/05 00:56:26;;;;;;;0.50;0.50;;;8.20;99.90;;;;;;5000845;28;20025;-32
2023/11/05 00:58:51;;;;;;;0.50;0.50;;;8.20;99.90;;;;;;5002606;28;20030;-30
2023/11/05 01:01:17;;;;;;;0.60;0.60;;;8.20;99.90;;;;;;4980160;28;20030;-35
2023/11/05 01:03:43;;;;;;;0.50;0.50;;;8.30;99.90;;;;;;4999828;28;20606;-35
2023/11/05 01:06:08;;;;;;;0.45;0.45;;;8.20;99.90;;;;;;5001870;28;20038;-31
2023/11/05 01:08:34;;;;;;;1.02;0.55;;;8.20;99.90;;;;;;5002391;28;20530;-30
2023/11/05 01:10:59;;;;;;;1.10;0.60;;;8.20;99.90;;;;;;5000068;28;20128;-30
2023/11/05 01:13:27;;;;;;;0.40;0.40;;;8.20;99.90;;;;;;5001633;28;20033;-30
2023/11/05 01:15:52;;;;;;;0.55;0.50;;;8.10;99.90;;;;;;5001234;28;20041;-31
2023/11/05 01:18:18;;;;;;;0.85;0.52;;;8.00;99.90;;;;;;5000624;28;20538;-34
2023/11/05 01:20:43;;;;;;;0.40;0.40;;;8.00;99.90;;;;;;5005158;28;20120;-29
2023/11/05 01:23:09;;;;;;;0.93;0.57;;;7.90;99.90;;;;;;5006794;28;20034;-31
2023/11/05 01:25:35;;;;;;;0.60;0.60;;;7.80;99.90;;;;;;5006675;28;20400;-30
2023/11/05 01:28:00;;;;;;;0.47;0.47;;;7.70;99.90;;;;;;5005082;28;20034;-29
2023/11/05 01:30:26;;;;;;;0.60;0.60;;;7.80;99.90;;;;;;5004781;28;20056;-32
2023/11/05 01:32:52;;;;;;;1.15;0.60;;;7.80;99.90;;;;;;5002734;28;20165;-31
2023/11/05 01:35:17;;;;;;;0.60;0.60;;;7.70;99.90;;;;;;5007366;28;20050;-32
2023/11/05 01:37:43;;;;;;;0.70;0.70;;;7.70;99.90;;;;;;5008953;28;20030;-37
2023/11/05 01:40:09;;;;;;;0.47;0.47;;;7.70;99.90;;;;;;5003678;28;20034;-31
2023/11/05 01:42:35;;;;;;;2.42;0.70;;;7.70;99.90;;;;;;5002669;28;20026;-31
2023/11/05 01:45:00;;;;;;;0.93;0.50;;;7.70;99.90;;;;;;5004892;28;20108;-31
2023/11/05 01:47:26;;;;;;;0.60;0.60;;;7.70;99.90;;;;;;5007837;28;20044;-32
2023/11/05 01:49:52;;;;;;;0.60;0.60;;;7.50;99.90;;;;;;5008533;28;20083;-31
2023/11/05 01:52:19;;;;;;;2.10;1.00;;;7.50;99.90;;;;;;5008385;28;20120;-36
2023/11/05 01:54:45;;;;;;;0.50;0.50;;;7.40;99.90;;;;;;5008234;28;20037;-30
2023/11/05 01:57:11;;;;;;;0.73;0.65;;;7.30;99.90;;;;;;5009678;28;20383;-30
2023/11/05 01:59:37;;;;;;;1.23;0.60;;;7.20;99.90;;;;;;5008818;28;20373;-30
2023/11/05 02:02:03;;;;;;;0.50;0.50;;;7.30;99.90;;;;;;5001335;28;20510;-31
2023/11/05 02:04:29;;;;;;;0.50;0.50;;;7.20;99.90;;;;;;5010280;28;20116;-31
2023/11/05 02:06:56;;;;;;;1.58;0.70;;;7.20;99.90;;;;;;5011657;28;20422;-35
2023/11/05 02:09:21;;;;;;;0.82;0.60;;;7.00;99.90;;;;;;5008560;28;20037;-30
2023/11/05 02:11:47;;;;;;;0.40;0.40;;;6.80;99.90;;;;;;5007810;28;20381;-31
2023/11/05 02:14:15;;;;;;;0.45;0.45;;;6.60;99.90;;;;;;5007781;28;20263;-30
2023/11/05 02:16:41;;;;;;;0.52;0.52;;;6.50;99.90;;;;;;5005770;28;20022;-35
2023/11/05 02:19:07;;;;;;;3.20;0.60;;;6.40;99.90;;;;;;5006846;28;20037;-34
2023/11/05 02:21:45;;;;;;;0.43;0.43;;;6.30;99.90;;;;;;5004283;28;20044;-30
2023/11/05 02:24:11;;;;;;;0.50;0.50;;;6.30;99.90;;;;;;5006836;28;20486;-33
2023/11/05 02:26:37;;;;;;;0.50;0.47;;;6.20;99.90;;;;;;5008456;28;20124;-35
2023/11/05 02:29:03;;;;;;;0.40;0.40;;;6.20;99.90;;;;;;5008418;28;20512;-30
2023/11/05 02:31:28;;;;;;;0.50;0.50;;;6.30;99.90;;;;;;5004776;28;20038;-30
2023/11/05 02:33:55;;;;;;;2.33;0.60;;;6.20;99.90;;;;;;5008070;28;20046;-33
2023/11/05 02:36:20;;;;;;;0.60;0.60;;;6.10;99.90;;;;;;5001138;28;20038;-31
2023/11/05 02:38:46;;;;;;;0.55;0.55;;;6.10;99.90;;;;;;5003784;28;20022;-30
2023/11/05 02:41:12;;;;;;;0.40;0.40;;;6.20;99.90;;;;;;5006610;28;20026;-33
2023/11/05 02:43:38;;;;;;;0.50;0.50;;;6.30;99.90;;;;;;4996799;28;20031;-33
2023/11/05 02:46:04;;;;;;;0.57;0.57;;;6.20;99.90;;;;;;5006254;28;20056;-30
2023/11/05 02:48:30;;;;;;;1.40;0.70;;;6.10;99.90;;;;;;5008535;28;20034;-34
2023/11/05 02:50:56;;;;;;;1.13;0.50;;;6.10;99.90;;;;;;4988780;28;20034;-31
2023/11/05 02:53:22;;;;;;;1.30;1.02;;;6.00;99.90;;;;;;5005097;28;20049;-30
2023/11/05 02:55:48;;;;;;;2.38;1.35;;;6.10;99.90;;;;;;5003090;28;20026;-30
2023/11/05 02:58:15;;;;;;;5.88;2.83;;;6.20;99.90;;;;;;5007618;28;20057;-31
2023/11/05 03:00:41;;;;;;;3.90;2.05;;;6.20;99.90;;;;;;5009490;28;20052;-34
2023/11/05 03:03:08;;;;;;;2.40;1.90;;;6.30;99.90;;;;;;5008462;28;20368;-31
2023/11/05 03:05:33;;;;;;;4.03;3.63;;;6.30;99.90;;;;;;5001780;28;20037;-33
2023/11/05 03:07:59;;;;;;;0.73;0.73;;;6.30;99.90;;;;;;5007934;28;20072;-31
2023/11/05 03:10:25;;;;;;;1.40;1.30;;;6.30;99.90;;;;;;5005813;28;20117;-34
2023/11/05 03:12:50;;;;;;;1.17;1.15;;;6.40;99.90;;;;;;5003937;28;20422;-32
2023/11/05 03:15:16;;;;;;;3.03;0.90;;;6.40;99.90;;;;;;5003123;28;20069;-33
2023/11/05 03:17:41;;;;;;;1.10;0.98;;;6.40;99.90;;;;;;5004943;28;20026;-33
2023/11/05 03:20:07;;;;;;;0.80;0.73;;;6.30;99.90;;;;;;5003743;28;20026;-34
2023/11/05 03:22:37;;;;;;;0.55;0.55;;;6.40;99.90;;;;;;4999892;28;20106;-37
2023/11/05 03:25:04;;;;;;;0.60;0.60;;;6.30;99.90;;;;;;5002388;28;20022;-30
2023/11/05 03:27:30;;;;;;;0.63;0.50;;;6.30;99.90;;;;;;4994920;28;20480;-35
2023/11/05 03:29:56;;;;;;;0.80;0.80;;;6.30;99.90;;;;;;5004229;28;20029;-35
2023/11/05 03:32:22;;;;;;;0.88;0.60;;;6.20;99.90;;;;;;5003565;28;20041;-38
2023/11/05 03:34:47;;;;;;;0.70;0.70;;;6.00;99.90;;;;;;4984067;28;20133;-30
2023/11/05 03:37:13;;;;;;;0.50;0.50;;;6.00;99.90;;;;;;5003865;28;20148;-31
2023/11/05 03:39:39;;;;;;;0.50;0.50;;;6.00;99.90;;;;;;5002343;28;20033;-35
2023/11/05 03:42:06;;;;;;;1.27;0.57;;;6.00;99.90;;;;;;5004695;28;20036;-33
2023/11/05 03:44:32;;;;;;;0.70;0.70;;;6.10;99.90;;;;;;5004340;28;20036;-32
2023/11/05 03:46:57;;;;;;;1.25;0.60;;;6.20;99.90;;;;;;5001610;28;20038;-31
2023/11/05 03:49:23;;;;;;;0.50;0.43;;;6.20;99.90;;;;;;5007569;28;20045;-31
2023/11/05 03:51:49;;;;;;;0.50;0.50;;;6.00;99.90;;;;;;5000710;28;20057;-30
2023/11/05 03:54:15;;;;;;;0.50;0.50;;;5.90;99.90;;;;;;5000559;28;20038;-31
2023/11/05 03:56:42;;;;;;;0.60;0.60;;;5.90;99.90;;;;;;5004496;28;20030;-34
2023/11/05 03:59:08;;;;;;;0.50;0.50;;;6.00;99.90;;;;;;5005522;28;20567;-32
2023/11/05 04:01:33;;;;;;;0.40;0.40;;;6.00;99.90;;;;;;4999208;28;20042;-31
2023/11/05 04:03:59;;;;;;;0.57;0.57;;;6.00;99.90;;;;;;5000105;28;20471;-30
2023/11/05 04:06:24;;;;;;;0.50;0.50;;;6.00;99.90;;;;;;5005834;28;20403;-31
2023/11/05 04:08:50;;;;;;;0.47;0.45;;;6.10;99.90;;;;;;5003512;28;20494;-31
2023/11/05 04:11:16;;;;;;;0.40;0.40;;;6.10;99.90;;;;;;5002988;28;20038;-31
2023/11/05 04:13:46;;;;;;;1.38;0.95;;;6.10;99.90;;;;;;5002262;28;20526;-38
2023/11/05 04:16:12;;;;;;;0.63;0.50;;;6.10;99.90;;;;;;5003465;28;20064;-41
2023/11/05 04:18:38;;;;;;;1.95;0.55;;;5.90;99.90;;;;;;5006312;28;20103;-40
2023/11/05 04:21:04;;;;;;;0.60;0.60;;;5.90;99.90;;;;;;5004562;28;20140;-40
2023/11/05 04:23:32;;;;;;;0.50;0.50;;;5.80;99.90;;;;;;5004640;28;20594;-38
2023/11/05 04:25:57;;;;;;;0.68;0.68;;;5.80;99.90;;;;;;5003999;28;20107;-43
2023/11/05 04:28:23;;;;;;;0.65;0.65;;;5.70;99.90;;;;;;5005853;28;20030;-41
2023/11/05 04:30:49;;;;;;;0.90;0.50;;;5.80;99.90;;;;;;5003616;28;20022;-40
2023/11/05 04:33:14;;;;;;;0.50;0.50;;;5.70;99.90;;;;;;5001436;28;20023;-40
2023/11/05 04:35:40;;;;;;;1.50;0.60;;;5.80;99.90;;;;;;5005021;28;20454;-34
2023/11/05 04:38:06;;;;;;;3.25;0.70;;;5.80;99.90;;;;;;5005866;28;20029;-41
2023/11/05 04:40:31;;;;;;;0.55;0.55;;;5.70;99.90;;;;;;5001840;28;20097;-40
2023/11/05 04:42:57;;;;;;;0.55;0.55;;;5.80;99.90;;;;;;5003483;28;20340;-32
2023/11/05 04:45:22;;;;;;;1.02;0.63;;;5.80;99.90;;;;;;5004541;28;20040;-37
2023/11/05 04:47:48;;;;;;;1.23;0.63;;;5.70;99.90;;;;;;5005559;28;20038;-34
2023/11/05 04:50:14;;;;;;;0.90;0.60;;;5.60;99.90;;;;;;4986779;28;20042;-34
2023/11/05 04:52:39;;;;;;;0.60;0.60;;;5.60;99.90;;;;;;5005503;28;20026;-33
2023/11/05 04:55:05;;;;;;;1.05;0.55;;;5.60;99.90;;;;;;5006885;28;20029;-33
2023/11/05 04:57:32;;;;;;;0.55;0.55;;;5.50;99.90;;;;;;5008390;28;20083;-33
2023/11/05 04:59:58;;;;;;;0.60;0.60;;;5.40;99.90;;;;;;5008126;28;20037;-34
2023/11/05 05:02:24;;;;;;;0.60;0.60;;;5.30;99.90;;;;;;5006534;28;20035;-33
2023/11/05 05:04:51;;;;;;;0.95;0.68;;;5.20;99.90;;;;;;5006476;28;20148;-33
2023/11/05 05:07:17;;;;;;;0.80;0.80;;;5.20;99.90;;;;;;5008710;28;20442;-35
2023/11/05 05:09:43;;;;;;;1.40;0.70;;;5.20;99.90;;;;;;5006576;28;20664;-35
2023/11/05 05:12:09;;;;;;;0.80;0.80;;;5.20;99.90;;;;;;4974206;28;20034;-31
2023/11/05 05:14:35;;;;;;;0.73;0.73;;;5.20;99.90;;;;;;5003938;28;20030;-34
2023/11/05 05:17:01;;;;;;;0.60;0.60;;;5.40;99.90;;;;;;5004156;28;20022;-33
2023/11/05 05:19:26;;;;;;;0.60;0.60;;;5.50;99.90;;;;;;5008356;28;20030;-34
2023/11/05 05:21:52;;;;;;;0.60;0.60;;;5.50;99.90;;;;;;5008084;28;20030;-33
2023/11/05 05:24:18;;;;;;;0.55;0.55;;;5.90;99.90;;;;;;5007878;28;20038;-34
2023/11/05 05:26:43;;;;;;;0.85;0.82;;;6.10;99.90;;;;;;5006739;28;20037;-41
2023/11/05 05:29:09;;;;;;;0.70;0.55;;;6.20;99.90;;;;;;5005409;28;20034;-41
2023/11/05 05:31:35;;;;;;;0.68;0.55;;;6.20;99.90;;;;;;5011082;28;20030;-39
2023/11/05 05:34:01;;;;;;;2.08;0.60;;;6.20;99.90;;;;;;5008220;28;20054;-41
2023/11/05 05:36:27;;;;;;;3.70;0.60;;;6.30;99.90;;;;;;5005135;28;20029;-41
2023/11/05 05:38:52;;;;;;;0.63;0.63;;;6.20;99.90;;;;;;5006721;28;20176;-41
2023/11/05 05:41:18;;;;;;;0.57;0.57;;;6.30;99.90;;;;;;5009498;28;20041;-38
2023/11/05 05:43:44;;;;;;;1.55;0.70;;;6.30;99.90;;;;;;5011715;28;20113;-42
2023/11/05 05:46:14;;;;;;;0.90;0.90;;;6.30;99.90;;;;;;5008547;28;20153;-41
2023/11/05 05:48:40;;;;;;;16.25;10.70;;;6.30;99.90;;;;;;5008586;28;20025;-41
2023/11/05 05:51:09;;;;;;;19.10;14.52;;;6.30;99.90;;;;;;5003207;28;20535;-40
2023/11/05 05:53:35;;;;;;;19.35;10.75;;;6.30;99.90;;;;;;5008654;28;20116;-31
2023/11/05 05:56:00;;;;;;;33.75;15.77;;;6.40;99.90;;;;;;5010817;28;20587;-32
2023/11/05 05:58:26;;;;;;;25.23;13.73;;;6.40;99.90;;;;;;4989239;28;20388;-31
2023/11/05 06:00:52;;;;;;;50.08;22.77;;;6.40;99.90;;;;;;5007985;28;20030;-31
2023/11/05 06:03:17;;;;;;;52.58;22.92;;;6.40;99.90;;;;;;5009967;28;20467;-33
2023/11/05 06:05:43;;;;;;;40.58;16.73;;;6.40;99.90;;;;;;5005505;28;20117;-34
2023/11/05 06:08:09;;;;;;;18.15;8.13;;;6.30;99.90;;;;;;5008534;28;20029;-31
2023/11/05 06:10:35;;;;;;;29.38;12.45;;;6.10;99.90;;;;;;5011815;28;20036;-30
2023/11/05 06:13:00;;;;;;;21.15;9.45;;;6.10;99.90;;;;;;4993763;28;20415;-31
2023/11/05 06:15:26;;;;;;;18.48;10.27;;;6.00;99.90;;;;;;5003480;28;20473;-32
2023/11/05 06:17:52;;;;;;;12.02;8.07;;;6.00;99.90;;;;;;4983359;28;20515;-31
2023/11/05 06:20:17;;;;;;;8.40;4.15;;;6.00;99.90;;;;;;5005291;28;20037;-36
2023/11/05 06:22:43;;;;;;;2.17;1.95;;;6.00;99.90;;;;;;5007981;28;20033;-31
2023/11/05 06:25:09;;;;;;;3.88;2.70;;;5.90;99.90;;;;;;5007122;28;20519;-32
2023/11/05 06:27:37;;;;;;;6.40;2.28;;;5.90;99.90;;;;;;5008666;28;20029;-30
2023/11/05 06:30:05;;;;;;;13.55;8.02;;;5.90;99.90;;;;;;5008386;28;20107;-30
2023/11/05 06:32:32;;;;;;;;;;;5.80;99.90;;;;;;5008580;28;20034;-29
2023/11/05 06:34:58;;;;;;;3.97;2.92;;;5.90;99.90;;;;;;5001951;28;19928;-39
2023/11/05 06:37:23;;;;;;;3.00;2.78;;;5.90;99.90;;;;;;5003694;28;20392;-37
2023/11/05 06:39:49;;;;;;;0.85;0.85;;;5.90;99.90;;;;;;5007621;28;20018;-40
2023/11/05 06:42:14;;;;;;;0.98;0.98;;;5.70;99.90;;;;;;5005751;28;20030;-41
2023/11/05 06:44:40;;;;;;;0.60;0.60;;;5.70;99.90;;;;;;5008348;28;20033;-33
2023/11/05 06:47:06;;;;;;;0.60;0.60;;;5.60;99.90;;;;;;5007046;28;20033;-40
2023/11/05 06:49:32;;;;;;;0.70;0.70;;;5.60;99.90;;;;;;5006422;28;20111;-39
2023/11/05 06:51:58;;;;;;;19.30;8.40;;;5.70;99.90;;;;;;5007619;28;20395;-40
2023/11/05 06:54:23;;;;;;;10.93;6.47;;;5.70;99.90;;;;;;5006984;28;20049;-40
2023/11/05 06:56:49;;;;;;;4.82;4.35;;;5.70;99.90;;;;;;5002077;28;20424;-40
2023/11/05 06:59:15;;;;;;;32.83;25.08;;;5.80;99.90;;;;;;5005091;28;20034;-41
2023/11/05 07:01:41;;;;;;;18.40;14.80;;;5.80;99.90;;;;;;5007099;28;20037;-36
2023/11/05 07:04:06;;;;;;;4.38;3.70;;;5.90;99.90;;;;;;5005358;28;20029;-29
2023/11/05 07:06:32;;;;;;;7.82;6.53;;;6.00;99.90;;;;;;5008158;28;20040;-28
2023/11/05 07:08:58;;;;;;;7.45;4.45;;;6.10;99.90;;;;;;5002332;28;20030;-31
2023/11/05 07:11:23;;;;;;;1.95;1.75;;;6.20;99.90;;;;;;5006125;28;20034;-31
2023/11/05 07:13:49;;;;;;;2.67;1.85;;;6.40;99.90;;;;;;5003861;28;20476;-30
2023/11/05 07:16:14;;;;;;;1.70;1.45;;;6.40;99.90;;;;;;5007238;28;20105;-30
2023/11/05 07:18:41;;;;;;;1.65;1.02;;;6.60;99.90;;;;;;5004978;28;20045;-36
2023/11/05 07:21:11;;;;;;;1.40;1.23;;;6.60;99.90;;;;;;5007313;28;20057;-30
2023/11/05 07:23:38;;;;;;;1.08;0.95;;;6.80;99.90;;;;;;5004653;28;20022;-30
2023/11/05 07:26:04;;;;;;;0.75;0.75;;;6.90;99.90;;;;;;5007934;28;20030;-30
2023/11/05 07:28:29;;;;;;;2.67;1.33;;;7.00;99.90;;;;;;5002845;28;20100;-30
2023/11/05 07:30:55;;;;;;;0.80;0.70;;;7.10;99.90;;;;;;5006483;28;20551;-30
2023/11/05 07:33:21;;;;;;;2.00;0.70;;;7.40;99.90;;;;;;5007081;28;20025;-33
2023/11/05 07:35:46;;;;;;;0.70;0.70;;;7.50;99.90;;;;;;5005966;28;20054;-30
2023/11/05 07:38:12;;;;;;;0.70;0.70;;;7.60;99.90;;;;;;5007661;28;20387;-31
2023/11/05 07:40:37;;;;;;;0.93;0.93;;;7.80;99.90;;;;;;5007212;28;20476;-31
2023/11/05 07:43:04;;;;;;;1.65;1.20;;;7.90;99.90;;;;;;5005901;28;20117;-36
2023/11/05 07:45:29;;;;;;;1.30;1.30;;;8.00;99.90;;;;;;5001511;28;20038;-38
2023/11/05 07:47:55;;;;;;;0.60;0.60;;;8.10;99.90;;;;;;5005765;28;20040;-39
2023/11/05 07:50:22;;;;;;;0.60;0.60;;;8.30;99.90;;;;;;5006068;28;20085;-37
2023/11/05 07:52:48;;;;;;;0.70;0.70;;;8.50;99.90;;;;;;5005584;28;20057;-37
2023/11/05 07:55:14;;;;;;;0.57;0.57;;;8.60;99.90;;;;;;5005634;28;20045;-37
2023/11/05 07:57:39;;;;;;;0.68;0.55;;;8.90;99.90;;;;;;4982073;28;20490;-38
2023/11/05 08:00:15;;;;;;;0.40;0.40;;;9.10;99.90;;;;;;5002390;28;20033;-38
2023/11/05 08:02:45;;;;;;;0.45;0.45;;;9.20;99.90;;;;;;5002426;28;20026;-38
2023/11/05 08:05:11;;;;;;;0.63;0.40;;;9.40;99.90;;;;;;5006394;28;20502;-39
2023/11/05 08:07:36;;;;;;;0.30;0.30;;;9.50;99.90;;;;;;5002610;28;20041;-37
2023/11/05 08:10:13;;;;;;;1.85;0.70;;;9.50;99.90;;;;;;5005885;28;20030;-39
2023/11/05 08:12:40;;;;;;;1.00;0.50;;;9.70;99.90;;;;;;5007137;28;20281;-32
2023/11/05 08:15:09;;;;;;;0.57;0.50;;;9.80;99.90;;;;;;4985192;28;20037;-40
2023/11/05 08:17:35;;;;;;;0.45;0.45;;;9.80;99.90;;;;;;5005470;28;20387;-41
2023/11/05 08:20:01;;;;;;;0.38;0.38;;;9.90;99.90;;;;;;4998534;28;20033;-37
2023/11/05 08:22:26;;;;;;;0.25;0.25;;;10.10;99.90;;;;;;5003092;28;20030;-39
2023/11/05 08:24:52;;;;;;;0.40;0.40;;;10.10;99.90;;;;;;5004598;28;20052;-39
2023/11/05 08:27:18;;;;;;;1.45;0.43;;;10.20;99.90;;;;;;4998647;28;20432;-35
2023/11/05 08:29:43;;;;;;;0.32;0.32;;;10.40;99.90;;;;;;5009334;28;20076;-39
2023/11/05 08:32:09;;;;;;;0.68;0.47;;;10.60;99.90;;;;;;5008533;28;20038;-38
2023/11/05 08:34:35;;;;;;;0.30;0.30;;;10.70;99.90;;;;;;5007451;28;20046;-41
2023/11/05 08:37:03;;;;;;;8.80;0.80;;;10.70;99.90;;;;;;5004193;28;20026;-41
2023/11/05 08:39:30;;;;;;;0.30;0.30;;;10.60;99.90;;;;;;5003657;28;20033;-41
2023/11/05 08:41:57;;;;;;;0.52;0.52;;;10.60;99.90;;;;;;5008097;28;20054;-37
2023/11/05 08:44:23;;;;;;;0.30;0.30;;;10.50;99.90;;;;;;5005859;28;20030;-38
2023/11/05 08:46:48;;;;;;;0.40;0.40;;;10.70;99.90;;;;;;5010049;28;20052;-39
2023/11/05 08:49:14;;;;;;;0.70;0.38;;;10.90;99.90;;;;;;5006844;28;20025;-38
2023/11/05 08:51:40;;;;;;;0.40;0.40;;;10.80;99.90;;;;;;5008715;28;20026;-34
2023/11/05 08:54:06;;;;;;;0.60;0.30;;;10.90;99.90;;;;;;5009394;28;20037;-41
2023/11/05 08:56:31;;;;;;;1.90;0.40;;;10.90;99.90;;;;;;5008578;28;20030;-38
2023/11/05 08:58:57;;;;;;;2.28;0.80;;;11.10;99.90;;;;;;5007175;28;20026;-38
2023/11/05 09:01:23;;;;;;;1.10;0.40;;;11.10;99.90;;;;;;5006252;28;20093;-36
2023/11/05 09:03:48;;;;;;;0.20;0.20;;;11.20;99.90;;;;;;5009841;28;20030;-38
2023/11/05 09:06:18;;;;;;;0.88;0.35;;;11.20;99.90;;;;;;5009198;28;20026;-39
2023/11/05 09:08:44;;;;;;;0.28;0.20;;;11.30;99.90;;;;;;5011034;28;20018;-37
2023/11/05 09:11:11;;;;;;;0.20;0.20;;;11.30;99.90;;;;;;5008827;28;20152;-38
2023/11/05 09:13:37;;;;;;;0.47;0.32;;;11.30;99.90;;;;;;5004786;28;20026;-37
2023/11/05 09:16:06;;;;;;;0.45;0.40;;;11.40;99.90;;;;;;5007711;28;20025;-40
2023/11/05 09:18:32;;;;;;;0.28;0.28;;;11.50;99.90;;;;;;5007791;28;20543;-37
2023/11/05 09:20:58;;;;;;;0.17;0.17;;;11.40;99.90;;;;;;4987518;28;20026;-41
2023/11/05 09:23:24;;;;;;;0.22;0.22;;;11.30;99.90;;;;;;5008715;28;20477;-39
2023/11/05 09:25:51;;;;;;;0.77;0.28;;;11.20;99.90;;;;;;5008196;28;20141;-36
2023/11/05 09:28:17;;;;;;;0.20;0.20;;;11.20;99.90;;;;;;5008888;28;20057;-39
2023/11/05 09:30:43;;;;;;;0.30;0.30;;;11.10;99.90;;;;;;4990784;28;20026;-38
2023/11/05 09:33:09;;;;;;;0.30;0.30;;;11.10;99.90;;;;;;5009779;28;20026;-40
2023/11/05 09:35:36;;;;;;;0.30;0.30;;;11.10;99.90;;;;;;5007857;28;20578;-40
2023/11/05 09:38:02;;;;;;;0.20;0.20;;;11.10;99.90;;;;;;5008952;28;20018;-38
2023/11/05 09:40:28;;;;;;;1.13;0.30;;;11.10;99.90;;;;;;5010494;28;20046;-40
2023/11/05 09:43:05;;;;;;;0.38;0.28;;;11.10;99.90;;;;;;4990589;28;20056;-40
2023/11/05 09:45:34;;;;;;;0.30;0.30;;;11.10;99.90;;;;;;5007350;28;20494;-38
2023/11/05 09:48:09;;;;;;;0.30;0.30;;;11.10;99.90;;;;;;5005381;28;20034;-39
2023/11/05 09:50:40;;;;;;;0.20;0.20;;;11.10;99.90;;;;;;5009645;28;20504;-40
2023/11/05 09:53:06;;;;;;;0.52;0.28;;;11.10;99.90;;;;;;4990445;28;20026;-39
2023/11/05 09:55:33;;;;;;;0.80;0.30;;;11.00;99.90;;;;;;5004907;28;20037;-38
2023/11/05 09:58:00;;;;;;;0.50;0.47;;;10.90;99.90;;;;;;5002651;28;20026;-39
2023/11/05 10:00:30;;;;;;;1.65;0.30;;;10.90;99.90;;;;;;4998135;28;20614;-38
2023/11/05 10:02:57;;;;;;;1.40;0.43;;;10.80;99.90;;;;;;5000326;28;20760;-38
2023/11/05 10:05:25;;;;;;;3.53;0.55;;;10.70;99.90;;;;;;4999440;28;20053;-37
2023/11/05 10:07:51;;;;;;;0.30;0.30;;;10.60;99.90;;;;;;5005443;28;20045;-38
2023/11/05 10:10:17;;;;;;;0.80;0.40;;;10.60;99.90;;;;;;5005401;28;20026;-35
2023/11/05 10:12:43;;;;;;;1.55;0.40;;;11.00;99.90;;;;;;4991549;28;20038;-37
2023/11/05 10:15:09;;;;;;;0.28;0.28;;;11.10;99.90;;;;;;4998967;28;20038;-38
2023/11/05 10:17:35;;;;;;;2.85;0.40;;;11.00;99.90;;;;;;4995797;28;20048;-39
2023/11/05 10:20:01;;;;;;;0.20;0.20;;;11.10;99.90;;;;;;4991703;28;20022;-39
2023/11/05 10:22:27;;;;;;;1.02;0.40;;;11.20;99.90;;;;;;5007492;28;20133;-39
2023/11/05 10:24:52;;;;;;;0.20;0.20;;;11.30;99.90;;;;;;5011267;28;20029;-38
2023/11/05 10:27:30;;;;;;;0.30;0.30;;;11.40;99.90;;;;;;5004881;28;20033;-36
2023/11/05 10:29:56;;;;;;;2.20;0.40;;;11.50;99.90;;;;;;5005912;28;20116;-38
2023/11/05 10:32:23;;;;;;;0.22;0.22;;;11.70;99.90;;;;;;5004750;28;20034;-35
2023/11/05 10:34:51;;;;;;;0.20;0.20;;;11.80;99.90;;;;;;5007207;28;20427;-30
2023/11/05 10:37:18;;;;;;;0.30;0.30;;;11.60;99.90;;;;;;5005278;28;20033;-36
2023/11/05 10:39:44;;;;;;;0.40;0.38;;;11.50;99.90;;;;;;5010117;28;20084;-32
2023/11/05 10:42:13;;;;;;;0.38;0.30;;;11.40;99.90;;;;;;5005144;28;20033;-31
2023/11/05 10:44:43;;;;;;;0.20;0.20;;;11.40;99.90;;;;;;5005662;28;20415;-30
2023/11/05 10:47:10;;;;;;;0.70;0.30;;;11.40;99.90;;;;;;5007890;28;20546;-30
2023/11/05 10:49:37;;;;;;;0.20;0.20;;;11.50;99.90;;;;;;5006380;28;20037;-31
2023/11/05 10:52:05;;;;;;;0.25;0.25;;;11.50;99.90;;;;;;5002128;28;20026;-30
2023/11/05 10:54:34;;;;;;;0.50;0.50;;;11.40;99.90;;;;;;5004689;28;20484;-31
2023/11/05 10:57:00;;;;;;;0.35;0.35;;;11.40;99.90;;;;;;4987239;28;20040;-32
2023/11/05 10:59:40;;;;;;;0.30;0.30;;;11.40;99.90;;;;;;5003236;28;20045;-30
2023/11/05 11:02:06;;;;;;;1.27;0.30;;;11.50;99.90;;;;;;4998362;28;20041;-30
2023/11/05 11:04:32;;;;;;;0.40;0.40;;;11.40;99.90;;;;;;5005204;28;20491;-32
2023/11/05 11:06:58;;;;;;;0.40;0.40;;;11.60;99.90;;;;;;5004042;28;20085;-32
2023/11/05 11:09:29;;;;;;;0.60;0.40;;;11.90;99.90;;;;;;5000929;28;20525;-30
2023/11/05 11:11:57;;;;;;;0.55;0.20;;;11.90;99.90;;;;;;5003202;28;20041;-31
2023/11/05 11:14:27;;;;;;;0.32;0.32;;;12.00;99.90;;;;;;4999723;28;20038;-30
2023/11/05 11:16:53;;;;;;;0.30;0.30;;;12.20;99.90;;;;;;5004800;28;20026;-31
2023/11/05 11:19:21;;;;;;;0.43;0.30;;;12.40;99.90;;;;;;5003555;28;20479;-37
2023/11/05 11:21:55;;;;;;;1.17;0.40;;;12.30;99.90;;;;;;4999410;28;20033;-34
2023/11/05 11:24:33;;;;;;;1.50;0.30;;;12.10;99.90;;;;;;5000983;28;20030;-31
2023/11/05 11:27:04;;;;;;;0.20;0.20;;;12.20;99.90;;;;;;5002896;28;20530;-30
2023/11/05 11:29:35;;;;;;;0.45;0.30;;;12.10;99.90;;;;;;5007444;28;20585;-31
2023/11/05 11:32:02;;;;;;;0.60;0.20;;;12.20;99.90;;;;;;5003376;28;20042;-31
2023/11/05 11:34:28;;;;;;;4.88;0.40;;;12.20;99.90;;;;;;5001381;28;20427;-33
2023/11/05 11:37:04;;;;;;;1.27;0.45;;;12.00;99.90;;;;;;5003743;28;20114;-33
2023/11/05 11:39:31;;;;;;;0.17;0.17;;;11.90;99.90;;;;;;4999786;28;20494;-34
2023/11/05 11:41:57;;;;;;;0.30;0.30;;;11.90;99.90;;;;;;5002202;28;20034;-34
2023/11/05 11:44:23;;;;;;;3.15;0.47;;;12.10;99.90;;;;;;5001098;28;20391;-38
2023/11/05 11:46:49;;;;;;;1.58;1.10;;;12.10;99.90;;;;;;5002506;28;20044;-40
2023/11/05 11:49:14;;;;;;;1.15;0.30;;;12.00;99.90;;;;;;5000498;28;20518;-39
2023/11/05 11:51:41;;;;;;;2.40;0.30;;;12.10;99.90;;;;;;5004824;28;20391;-34
2023/11/05 11:54:09;;;;;;;0.35;0.35;;;12.20;99.90;;;;;;5001038;28;20033;-41
2023/11/05 11:56:35;;;;;;;0.70;0.30;;;12.20;99.90;;;;;;5000762;28;20499;-40
2023/11/05 11:59:05;;;;;;;0.30;0.30;;;12.10;99.90;;;;;;5004170;28;20640;-38
2023/11/05 12:01:33;;;;;;;0.15;0.15;;;12.10;99.90;;;;;;5003663;28;20033;-41
2023/11/05 12:03:59;;;;;;;0.30;0.30;;;12.10;99.90;;;;;;5004436;28;20456;-36
2023/11/05 12:06:27;;;;;;;2.30;0.38;;;12.10;99.90;;;;;;5002692;28;20304;-41
2023/11/05 12:08:54;;;;;;;0.20;0.20;;;12.00;99.90;;;;;;5004148;28;20034;-34
2023/11/05 12:11:22;;;;;;;0.55;0.22;;;11.90;99.90;;;;;;4998245;28;20038;-38
2023/11/05 12:13:48;;;;;;;1.15;0.25;;;11.90;99.90;;;;;;5001618;28;20113;-39
2023/11/05 12:16:17;;;;;;;0.20;0.20;;;11.90;99.90;;;;;;4979567;28;20030;-41
2023/11/05 12:18:48;;;;;;;0.32;0.32;;;12.00;99.90;;;;;;5001709;28;20072;-41
2023/11/05 12:21:14;;;;;;;1.10;0.65;;;12.10;99.90;;;;;;5000768;28;20062;-40
2023/11/05 12:23:42;;;;;;;0.40;0.40;;;12.20;99.90;;;;;;5002799;28;20030;-32
2023/11/05 12:26:09;;;;;;;0.30;0.30;;;12.30;99.90;;;;;;4997401;28;20038;-41
2023/11/05 12:28:34;;;;;;;0.55;0.40;;;12.50;99.90;;;;;;5005789;28;20029;-39
2023/11/05 12:31:05;;;;;;;0.25;0.25;;;12.70;99.90;;;;;;4999883;28;20045;-41
2023/11/05 12:33:34;;;;;;;7.47;0.90;;;12.80;99.90;;;;;;5005097;28;20083;-39
2023/11/05 12:35:59;;;;;;;1.27;0.50;;;12.60;99.90;;;;;;4982411;28;20029;-40
2023/11/05 12:38:25;;;;;;;0.30;0.30;;;12.30;99.90;;;;;;5000207;28;20026;-41
2023/11/05 12:40:52;;;;;;;1.75;0.52;;;12.30;99.90;;;;;;5001070;28;20539;-41
2023/11/05 12:43:19;;;;;;;0.25;0.25;;;12.40;99.90;;;;;;5002901;28;20037;-34
2023/11/05 12:45:45;;;;;;;0.30;0.30;;;12.40;99.90;;;;;;5000090;28;20033;-37
2023/11/05 12:48:11;;;;;;;0.90;0.30;;;12.40;99.90;;;;;;5004097;28;20408;-39